createdAt,value
2016-05-24T00:00:00.026Z,1008.06
2016-05-24T00:01:00.076Z,1008.16
2016-05-24T00:02:00.437Z,1008.12
2016-05-24T00:03:00.176Z,1008.13
2016-05-24T00:04:00.224Z,1008.16
2016-05-24T00:05:00.274Z,1008.04
2016-05-24T00:06:00.339Z,1008.09
2016-05-24T00:07:00.389Z,1008.08
2016-05-24T00:08:00.438Z,1008.11
2016-05-24T00:09:00.487Z,1008.11
2016-05-24T00:10:00.537Z,1008.13
2016-05-24T00:11:00.587Z,1008.13
2016-05-24T00:12:00.652Z,1008.17
2016-05-24T00:13:00.702Z,1008.18
2016-05-24T00:14:00.736Z,1008.19
2016-05-24T00:15:00.800Z,1008.19
2016-05-24T00:16:00.850Z,1008.17
2016-05-24T00:17:00.900Z,1008.18
2016-05-24T00:18:00.950Z,1008.19
2016-05-24T00:19:00.999Z,1008.19
2016-05-24T00:20:01.049Z,1008.25
2016-05-24T00:21:01.099Z,1008.17
2016-05-24T00:22:01.148Z,1008.22
2016-05-24T00:23:01.197Z,1008.2
2016-05-24T00:24:01.263Z,1008.15
2016-05-24T00:25:01.296Z,1008.18
2016-05-24T00:26:01.346Z,1008.16
2016-05-24T00:27:01.410Z,1008.13
2016-05-24T00:28:01.461Z,1008.11
2016-05-24T00:29:01.510Z,1008.13
2016-05-24T00:30:01.576Z,1008.08
2016-05-24T00:31:01.609Z,1008.08
2016-05-24T00:32:01.660Z,1008.11
2016-05-24T00:33:01.724Z,1008.13
2016-05-24T00:34:01.774Z,1008.1
2016-05-24T00:35:01.823Z,1008.07
2016-05-24T00:36:01.873Z,1008.1
2016-05-24T00:37:01.922Z,1008.06
2016-05-24T00:38:01.987Z,1008.05
2016-05-24T00:39:02.022Z,1008.04
2016-05-24T00:40:02.071Z,1008.05
2016-05-24T00:41:02.137Z,1008.04
2016-05-24T00:42:02.186Z,1008.04
2016-05-24T00:43:02.220Z,1008.06
2016-05-24T00:44:02.285Z,1008.03
2016-05-24T00:45:02.334Z,1008.05
2016-05-24T00:46:02.384Z,1008.07
2016-05-24T00:47:02.434Z,1008.06
2016-05-24T00:48:02.483Z,1008.06
2016-05-24T00:49:02.533Z,1008.05
2016-05-24T00:50:02.583Z,1008.04
2016-05-24T00:51:02.633Z,1008.04
2016-05-24T00:52:02.697Z,1008.05
2016-05-24T00:53:02.747Z,1008.07
2016-05-24T00:54:02.796Z,1008.06
2016-05-24T00:55:02.846Z,1008.04
2016-05-24T00:56:02.896Z,1008.09
2016-05-24T00:57:02.946Z,1008.09
2016-05-24T00:58:02.994Z,1008.07
2016-05-24T00:59:03.044Z,1008.08
2016-05-24T01:00:03.093Z,1008.06
2016-05-24T01:01:03.170Z,1008.08
2016-05-24T01:02:03.232Z,1008.12
2016-05-24T01:03:03.325Z,1008.14
2016-05-24T01:04:03.404Z,1008.14
2016-05-24T01:05:03.466Z,1008.13
2016-05-24T01:06:03.552Z,1008.15
2016-05-24T01:07:03.612Z,1008.12
2016-05-24T01:08:03.671Z,1008.17
2016-05-24T01:09:03.732Z,1008.18
2016-05-24T01:10:03.807Z,1008.15
2016-05-24T01:11:03.848Z,1008.15
2016-05-24T01:12:03.901Z,1008.16
2016-05-24T01:13:03.971Z,1008.16
2016-05-24T01:14:04.024Z,1008.16
2016-05-24T01:15:04.078Z,1008.14
2016-05-24T01:16:04.130Z,1008.18
2016-05-24T01:17:04.180Z,1008.17
2016-05-24T01:18:04.231Z,1008.13
2016-05-24T01:19:04.282Z,1008.08
2016-05-24T01:20:04.332Z,1008.17
2016-05-24T01:21:04.398Z,1008.14
2016-05-24T01:22:04.449Z,1008.16
2016-05-24T01:23:04.483Z,1008.1
2016-05-24T01:24:04.549Z,1008.14
2016-05-24T01:25:04.598Z,1008.11
2016-05-24T01:26:04.649Z,1008.16
2016-05-24T01:27:04.698Z,1008.1
2016-05-24T01:28:04.749Z,1008.11
2016-05-24T01:29:04.813Z,1008.09
2016-05-24T01:30:04.942Z,1008.08
2016-05-24T01:31:04.897Z,1008.14
2016-05-24T01:32:04.964Z,1008.11
2016-05-24T01:33:05.014Z,1008.06
2016-05-24T01:34:05.062Z,1008.02
2016-05-24T01:35:05.111Z,1008.06
2016-05-24T01:36:05.177Z,1008.1
2016-05-24T01:37:05.210Z,1008.05
2016-05-24T01:38:05.261Z,1008.07
2016-05-24T01:39:05.311Z,1008.04
2016-05-24T01:40:05.375Z,1008.03
2016-05-24T01:41:05.425Z,1008.05
2016-05-24T01:42:05.458Z,1008.08
2016-05-24T01:43:05.524Z,1008.06
2016-05-24T01:44:05.573Z,1008.1
2016-05-24T01:45:05.624Z,1008.08
2016-05-24T01:46:05.673Z,1008.05
2016-05-24T01:47:05.722Z,1008.03
2016-05-24T01:48:05.771Z,1008.04
2016-05-24T01:49:05.821Z,1008.03
2016-05-24T01:50:05.887Z,1008.02
2016-05-24T01:51:05.937Z,1008.06
2016-05-24T01:52:05.985Z,1008.05
2016-05-24T01:53:06.035Z,1008.04
2016-05-24T01:54:06.084Z,1008
2016-05-24T01:55:06.134Z,1008.01
2016-05-24T01:56:06.184Z,1008.02
2016-05-24T01:57:06.234Z,1008.04
2016-05-24T01:58:06.283Z,1008.01
2016-05-24T01:59:06.348Z,1008.02
2016-05-24T02:00:06.398Z,1008.01
2016-05-24T02:01:06.448Z,1008.01
2016-05-24T02:02:06.497Z,1007.96
2016-05-24T02:03:06.547Z,1007.96
2016-05-24T02:04:06.596Z,1007.93
2016-05-24T02:05:06.645Z,1007.94
2016-05-24T02:06:06.694Z,1007.96
2016-05-24T02:07:06.745Z,1007.97
2016-05-24T02:08:06.795Z,1007.97
2016-05-24T02:09:06.844Z,1007.98
2016-05-24T02:10:06.893Z,1007.97
2016-05-24T02:11:06.958Z,1007.92
2016-05-24T02:12:07.008Z,1007.91
2016-05-24T02:13:07.042Z,1007.94
2016-05-24T02:14:07.108Z,1007.97
2016-05-24T02:15:07.157Z,1007.92
2016-05-24T02:16:07.207Z,1007.97
2016-05-24T02:17:07.271Z,1007.96
2016-05-24T02:18:07.305Z,1007.95
2016-05-24T02:19:07.355Z,1007.97
2016-05-24T02:20:07.404Z,1008.01
2016-05-24T02:21:07.455Z,1008
2016-05-24T02:22:07.520Z,1008.02
2016-05-24T02:23:07.568Z,1008
2016-05-24T02:24:07.618Z,1008
2016-05-24T02:25:07.668Z,1007.99
2016-05-24T02:26:07.718Z,1007.98
2016-05-24T02:27:07.767Z,1008.05
2016-05-24T02:28:07.817Z,1008
2016-05-24T02:29:07.867Z,1007.98
2016-05-24T02:30:07.917Z,1008.02
2016-05-24T02:31:07.965Z,1008.05
2016-05-24T02:32:08.015Z,1008.02
2016-05-24T02:33:08.064Z,1008.01
2016-05-24T02:34:08.130Z,1008.01
2016-05-24T02:35:08.179Z,1007.98
2016-05-24T02:36:08.229Z,1007.98
2016-05-24T02:37:08.278Z,1008
2016-05-24T02:38:08.328Z,1007.96
2016-05-24T02:39:08.393Z,1007.92
2016-05-24T02:40:08.443Z,1007.96
2016-05-24T02:41:08.492Z,1007.95
2016-05-24T02:42:08.542Z,1007.89
2016-05-24T02:43:08.577Z,1007.96
2016-05-24T02:44:08.641Z,1007.94
2016-05-24T02:45:08.721Z,1007.92
2016-05-24T02:46:08.740Z,1007.9
2016-05-24T02:47:08.790Z,1007.96
2016-05-24T02:48:08.855Z,1007.89
2016-05-24T02:49:08.889Z,1007.89
2016-05-24T02:50:09.001Z,1007.94
2016-05-24T02:51:09.051Z,1007.97
2016-05-24T02:52:09.037Z,1007.92
2016-05-24T02:53:09.103Z,1007.93
2016-05-24T02:54:09.152Z,1007.97
2016-05-24T02:55:09.202Z,1007.94
2016-05-24T02:56:09.251Z,1007.92
2016-05-24T02:57:09.301Z,1007.96
2016-05-24T02:58:09.351Z,1007.96
2016-05-24T02:59:09.401Z,1007.96
2016-05-24T03:00:09.887Z,1007.95
2016-05-24T03:01:09.515Z,1007.9
2016-05-24T03:02:09.564Z,1007.82
2016-05-24T03:03:09.614Z,1007.9
2016-05-24T03:04:09.664Z,1007.9
2016-05-24T03:05:09.714Z,1007.92
2016-05-24T03:06:09.763Z,1007.94
2016-05-24T03:07:09.812Z,1007.97
2016-05-24T03:08:09.862Z,1008
2016-05-24T03:09:09.911Z,1007.98
2016-05-24T03:10:09.961Z,1007.99
2016-05-24T03:11:10.011Z,1007.99
2016-05-24T03:12:10.060Z,1007.99
2016-05-24T03:13:10.125Z,1007.99
2016-05-24T03:14:10.174Z,1008
2016-05-24T03:15:10.333Z,1007.99
2016-05-24T03:16:10.274Z,1007.96
2016-05-24T03:17:10.324Z,1007.99
2016-05-24T03:18:10.374Z,1007.98
2016-05-24T03:19:10.423Z,1008.03
2016-05-24T03:20:10.471Z,1008
2016-05-24T03:21:10.521Z,1008.03
2016-05-24T03:22:10.571Z,1008.04
2016-05-24T03:23:10.621Z,1008
2016-05-24T03:24:10.687Z,1008.02
2016-05-24T03:25:10.735Z,1008.03
2016-05-24T03:26:10.785Z,1008.04
2016-05-24T03:27:10.851Z,1008.03
2016-05-24T03:28:10.884Z,1008.01
2016-05-24T03:29:10.934Z,1008.04
2016-05-24T03:30:10.984Z,1008.05
2016-05-24T03:31:11.048Z,1008
2016-05-24T03:32:11.083Z,1008.03
2016-05-24T03:33:11.132Z,1008.04
2016-05-24T03:34:11.197Z,1008.08
2016-05-24T03:35:11.247Z,1008.1
2016-05-24T03:36:11.297Z,1008.07
2016-05-24T03:37:11.346Z,1008.12
2016-05-24T03:38:11.396Z,1008.09
2016-05-24T03:39:11.445Z,1008.15
2016-05-24T03:40:11.495Z,1008.08
2016-05-24T03:41:11.560Z,1008.1
2016-05-24T03:42:11.594Z,1008.14
2016-05-24T03:43:11.643Z,1008.12
2016-05-24T03:44:11.709Z,1008.09
2016-05-24T03:45:11.774Z,1008.16
2016-05-24T03:46:11.792Z,1008.12
2016-05-24T03:47:11.857Z,1008.15
2016-05-24T03:48:11.907Z,1008.16
2016-05-24T03:49:11.956Z,1008.21
2016-05-24T03:50:12.007Z,1008.28
2016-05-24T03:51:12.055Z,1008.28
2016-05-24T03:52:12.105Z,1008.23
2016-05-24T03:53:12.154Z,1008.29
2016-05-24T03:54:12.205Z,1008.27
2016-05-24T03:55:12.270Z,1008.26
2016-05-24T03:56:12.304Z,1008.25
2016-05-24T03:57:12.353Z,1008.3
2016-05-24T03:58:12.418Z,1008.29
2016-05-24T03:59:12.452Z,1008.24
2016-05-24T04:00:13.079Z,1008.34
2016-05-24T04:01:12.567Z,1008.4
2016-05-24T04:02:12.617Z,1008.39
2016-05-24T04:03:12.666Z,1008.41
2016-05-24T04:04:12.715Z,1008.45
2016-05-24T04:05:12.765Z,1008.46
2016-05-24T04:06:12.815Z,1008.48
2016-05-24T04:07:12.864Z,1008.44
2016-05-24T04:08:12.930Z,1008.42
2016-05-24T04:09:12.978Z,1008.41
2016-05-24T04:10:13.028Z,1008.41
2016-05-24T04:11:13.078Z,1008.39
2016-05-24T04:12:13.128Z,1008.41
2016-05-24T04:13:13.177Z,1008.36
2016-05-24T04:14:13.227Z,1008.35
2016-05-24T04:15:13.276Z,1008.37
2016-05-24T04:16:13.326Z,1008.34
2016-05-24T04:17:13.392Z,1008.39
2016-05-24T04:18:13.441Z,1008.37
2016-05-24T04:19:13.491Z,1008.36
2016-05-24T04:20:13.540Z,1008.42
2016-05-24T04:21:13.589Z,1008.41
2016-05-24T04:22:13.641Z,1008.45
2016-05-24T04:23:13.691Z,1008.41
2016-05-24T04:24:13.757Z,1008.39
2016-05-24T04:25:13.790Z,1008.43
2016-05-24T04:26:13.840Z,1008.46
2016-05-24T04:27:13.889Z,1008.46
2016-05-24T04:28:13.955Z,1008.48
2016-05-24T04:29:14.004Z,1008.5
2016-05-24T04:30:14.585Z,1008.54
2016-05-24T04:31:14.103Z,1008.47
2016-05-24T04:32:14.153Z,1008.5
2016-05-24T04:33:14.203Z,1008.5
2016-05-24T04:34:14.253Z,1008.53
2016-05-24T04:35:14.301Z,1008.51
2016-05-24T04:36:14.351Z,1008.45
2016-05-24T04:37:14.400Z,1008.47
2016-05-24T04:38:14.450Z,1008.49
2016-05-24T04:39:14.500Z,1008.52
2016-05-24T04:40:14.565Z,1008.52
2016-05-24T04:41:14.599Z,1008.51
2016-05-24T04:42:14.649Z,1008.5
2016-05-24T04:43:14.713Z,1008.5
2016-05-24T04:44:14.764Z,1008.49
2016-05-24T04:45:14.813Z,1008.47
2016-05-24T04:46:14.863Z,1008.47
2016-05-24T04:47:14.912Z,1008.5
2016-05-24T04:48:14.961Z,1008.46
2016-05-24T04:49:15.010Z,1008.44
2016-05-24T04:50:15.124Z,1008.41
2016-05-24T04:51:15.111Z,1008.48
2016-05-24T04:52:15.160Z,1008.47
2016-05-24T04:53:15.209Z,1008.45
2016-05-24T04:54:15.274Z,1008.44
2016-05-24T04:55:15.324Z,1008.4
2016-05-24T04:56:15.374Z,1008.44
2016-05-24T04:57:15.424Z,1008.41
2016-05-24T04:58:15.473Z,1008.44
2016-05-24T04:59:15.522Z,1008.38
2016-05-24T05:00:15.573Z,1008.44
2016-05-24T05:01:15.637Z,1008.4
2016-05-24T05:02:15.671Z,1008.38
2016-05-24T05:03:15.737Z,1008.41
2016-05-24T05:04:15.770Z,1008.39
2016-05-24T05:05:15.836Z,1008.37
2016-05-24T05:06:15.884Z,1008.39
2016-05-24T05:07:15.934Z,1008.38
2016-05-24T05:08:15.984Z,1008.47
2016-05-24T05:09:16.034Z,1008.45
2016-05-24T05:10:16.083Z,1008.45
2016-05-24T05:11:16.133Z,1008.47
2016-05-24T05:12:16.183Z,1008.51
2016-05-24T05:13:16.233Z,1008.51
2016-05-24T05:14:16.281Z,1008.6
2016-05-24T05:15:16.347Z,1008.52
2016-05-24T05:16:16.380Z,1008.48
2016-05-24T05:17:16.446Z,1008.54
2016-05-24T05:18:16.496Z,1008.54
2016-05-24T05:19:16.545Z,1008.46
2016-05-24T05:20:16.594Z,1008.5
2016-05-24T05:21:16.644Z,1008.56
2016-05-24T05:22:16.694Z,1008.53
2016-05-24T05:23:16.744Z,1008.55
2016-05-24T05:24:16.792Z,1008.56
2016-05-24T05:25:16.858Z,1008.55
2016-05-24T05:26:16.893Z,1008.56
2016-05-24T05:27:16.957Z,1008.58
2016-05-24T05:28:16.990Z,1008.55
2016-05-24T05:29:17.040Z,1008.55
2016-05-24T05:30:17.199Z,1008.54
2016-05-24T05:31:17.156Z,1008.6
2016-05-24T05:32:17.204Z,1008.51
2016-05-24T05:33:17.255Z,1008.57
2016-05-24T05:34:17.304Z,1008.57
2016-05-24T05:35:17.353Z,1008.63
2016-05-24T05:36:17.420Z,1008.6
2016-05-24T05:37:17.453Z,1008.64
2016-05-24T05:38:17.517Z,1008.68
2016-05-24T05:39:17.567Z,1008.66
2016-05-24T05:40:17.601Z,1008.66
2016-05-24T05:41:17.667Z,1008.7
2016-05-24T05:42:17.716Z,1008.73
2016-05-24T05:43:17.766Z,1008.72
2016-05-24T05:44:17.816Z,1008.74
2016-05-24T05:45:17.864Z,1008.73
2016-05-24T05:46:17.914Z,1008.77
2016-05-24T05:47:17.963Z,1008.76
2016-05-24T05:48:18.013Z,1008.77
2016-05-24T05:49:18.080Z,1008.77
2016-05-24T05:50:18.113Z,1008.78
2016-05-24T05:51:18.163Z,1008.75
2016-05-24T05:52:18.227Z,1008.72
2016-05-24T05:53:18.277Z,1008.74
2016-05-24T05:54:18.326Z,1008.74
2016-05-24T05:55:18.376Z,1008.74
2016-05-24T05:56:18.441Z,1008.75
2016-05-24T05:57:18.476Z,1008.74
2016-05-24T05:58:18.524Z,1008.79
2016-05-24T05:59:18.574Z,1008.75
2016-05-24T06:00:18.624Z,1008.74
2016-05-24T06:01:18.689Z,1008.72
2016-05-24T06:02:18.739Z,1008.76
2016-05-24T06:03:18.772Z,1008.78
2016-05-24T06:04:18.838Z,1008.77
2016-05-24T06:05:18.887Z,1008.8
2016-05-24T06:06:18.921Z,1008.78
2016-05-24T06:07:18.986Z,1008.82
2016-05-24T06:08:19.036Z,1008.82
2016-05-24T06:09:19.085Z,1008.83
2016-05-24T06:10:19.135Z,1008.83
2016-05-24T06:11:19.185Z,1008.79
2016-05-24T06:12:19.234Z,1008.8
2016-05-24T06:13:19.314Z,1008.79
2016-05-24T06:14:19.334Z,1008.85
2016-05-24T06:15:19.399Z,1008.83
2016-05-24T06:16:19.447Z,1008.8
2016-05-24T06:17:19.482Z,1008.83
2016-05-24T06:18:19.547Z,1008.74
2016-05-24T06:19:19.597Z,1008.84
2016-05-24T06:20:19.647Z,1008.84
2016-05-24T06:21:19.696Z,1008.84
2016-05-24T06:22:19.746Z,1008.88
2016-05-24T06:23:19.795Z,1008.88
2016-05-24T06:24:19.860Z,1008.89
2016-05-24T06:25:19.910Z,1008.87
2016-05-24T06:26:19.944Z,1008.84
2016-05-24T06:27:20.009Z,1008.83
2016-05-24T06:28:20.059Z,1008.81
2016-05-24T06:29:20.108Z,1008.84
2016-05-24T06:30:20.173Z,1008.84
2016-05-24T06:31:20.207Z,1008.86
2016-05-24T06:32:20.241Z,1008.82
2016-05-24T06:33:20.307Z,1008.88
2016-05-24T06:34:20.356Z,1008.82
2016-05-24T06:35:20.406Z,1008.8
2016-05-24T06:36:20.456Z,1008.81
2016-05-24T06:37:20.504Z,1008.83
2016-05-24T06:38:20.554Z,1008.83
2016-05-24T06:39:20.604Z,1008.88
2016-05-24T06:40:20.654Z,1008.87
2016-05-24T06:41:20.703Z,1008.9
2016-05-24T06:42:20.767Z,1008.91
2016-05-24T06:43:20.817Z,1008.96
2016-05-24T06:44:20.867Z,1008.92
2016-05-24T06:45:21.276Z,1008.96
2016-05-24T06:46:20.967Z,1008.96
2016-05-24T06:47:21.016Z,1009
2016-05-24T06:48:21.081Z,1009.01
2016-05-24T06:49:21.116Z,1009.01
2016-05-24T06:50:21.181Z,1009.09
2016-05-24T06:51:21.230Z,1009.07
2016-05-24T06:52:21.280Z,1009.05
2016-05-24T06:53:21.329Z,1009.14
2016-05-24T06:54:21.379Z,1009.12
2016-05-24T06:55:21.428Z,1009.15
2016-05-24T06:56:21.477Z,1009.16
2016-05-24T06:57:21.527Z,1009.19
2016-05-24T06:58:21.577Z,1009.24
2016-05-24T06:59:21.627Z,1009.24
2016-05-24T07:00:21.677Z,1009.24
2016-05-24T07:01:21.726Z,1009.27
2016-05-24T07:02:21.776Z,1009.28
2016-05-24T07:03:21.840Z,1009.25
2016-05-24T07:04:21.874Z,1009.25
2016-05-24T07:05:21.940Z,1009.25
2016-05-24T07:06:21.973Z,1009.26
2016-05-24T07:07:22.023Z,1009.2
2016-05-24T07:08:22.088Z,1009.2
2016-05-24T07:09:22.138Z,1009.19
2016-05-24T07:10:22.187Z,1009.15
2016-05-24T07:11:22.237Z,1009.19
2016-05-24T07:12:22.287Z,1009.19
2016-05-24T07:13:22.352Z,1009.23
2016-05-24T07:14:22.386Z,1009.17
2016-05-24T07:15:22.435Z,1009.17
2016-05-24T07:16:22.484Z,1009.14
2016-05-24T07:17:22.550Z,1009.18
2016-05-24T07:18:22.583Z,1009.18
2016-05-24T07:19:22.649Z,1009.15
2016-05-24T07:20:22.699Z,1009.13
2016-05-24T07:21:22.733Z,1009.12
2016-05-24T07:22:22.797Z,1009.21
2016-05-24T07:23:22.847Z,1009.17
2016-05-24T07:24:22.897Z,1009.13
2016-05-24T07:25:22.947Z,1009.14
2016-05-24T07:26:23.011Z,1009.14
2016-05-24T07:27:23.046Z,1009.12
2016-05-24T07:28:23.096Z,1009.12
2016-05-24T07:29:23.144Z,1009.1
2016-05-24T07:30:23.194Z,1009.1
2016-05-24T07:31:23.243Z,1009.07
2016-05-24T07:32:23.324Z,1009.06
2016-05-24T07:33:23.452Z,1009.06
2016-05-24T07:34:23.408Z,1009.09
2016-05-24T07:35:23.457Z,1009.07
2016-05-24T07:36:23.507Z,1009.07
2016-05-24T07:37:23.620Z,1009.07
2016-05-24T07:38:23.607Z,1009.05
2016-05-24T07:39:23.671Z,1009.07
2016-05-24T07:40:23.706Z,1009.06
2016-05-24T07:41:23.770Z,1009.04
2016-05-24T07:42:23.820Z,1009.11
2016-05-24T07:43:23.870Z,1009.07
2016-05-24T07:44:23.919Z,1009.11
2016-05-24T07:45:24.048Z,1009.13
2016-05-24T07:46:24.019Z,1009.17
2016-05-24T07:47:24.067Z,1009.14
2016-05-24T07:48:24.212Z,1009.13
2016-05-24T07:49:24.167Z,1009.09
2016-05-24T07:50:24.217Z,1009.12
2016-05-24T07:51:24.267Z,1009.11
2016-05-24T07:52:24.316Z,1009.15
2016-05-24T07:53:24.366Z,1009.1
2016-05-24T07:54:24.415Z,1009.09
2016-05-24T07:55:24.480Z,1009.12
2016-05-24T07:56:24.530Z,1009.19
2016-05-24T07:57:24.580Z,1009.18
2016-05-24T07:58:24.629Z,1009.17
2016-05-24T07:59:24.679Z,1009.18
2016-05-24T08:00:24.727Z,1009.22
2016-05-24T08:01:24.777Z,1009.21
2016-05-24T08:02:24.827Z,1009.24
2016-05-24T08:03:24.877Z,1009.22
2016-05-24T08:04:25.036Z,1009.21
2016-05-24T08:05:24.976Z,1009.25
2016-05-24T08:06:25.041Z,1009.26
2016-05-24T08:07:25.090Z,1009.21
2016-05-24T08:08:25.140Z,1009.24
2016-05-24T08:09:25.174Z,1009.23
2016-05-24T08:10:25.224Z,1009.18
2016-05-24T08:11:25.289Z,1009.21
2016-05-24T08:12:25.323Z,1009.27
2016-05-24T08:13:25.388Z,1009.25
2016-05-24T08:14:25.515Z,1009.22
2016-05-24T08:15:25.487Z,1009.24
2016-05-24T08:16:25.537Z,1009.24
2016-05-24T08:17:25.587Z,1009.21
2016-05-24T08:18:25.636Z,1009.19
2016-05-24T08:19:25.700Z,1009.2
2016-05-24T08:20:25.735Z,1009.25
2016-05-24T08:21:25.801Z,1009.22
2016-05-24T08:22:25.850Z,1009.26
2016-05-24T08:23:25.994Z,1009.23
2016-05-24T08:24:25.950Z,1009.24
2016-05-24T08:25:25.999Z,1009.27
2016-05-24T08:26:26.047Z,1009.22
2016-05-24T08:27:26.097Z,1009.24
2016-05-24T08:28:26.147Z,1009.25
2016-05-24T08:29:26.197Z,1009.27
2016-05-24T08:30:26.262Z,1009.3
2016-05-24T08:31:26.296Z,1009.26
2016-05-24T08:32:26.346Z,1009.24
2016-05-24T08:33:26.410Z,1009.24
2016-05-24T08:34:26.460Z,1009.24
2016-05-24T08:35:26.510Z,1009.29
2016-05-24T08:36:26.560Z,1009.29
2016-05-24T08:37:26.609Z,1009.29
2016-05-24T08:38:26.643Z,1009.32
2016-05-24T08:39:26.707Z,1009.29
2016-05-24T08:40:26.757Z,1009.33
2016-05-24T08:41:26.807Z,1009.33
2016-05-24T08:42:26.857Z,1009.31
2016-05-24T08:43:26.907Z,1009.31
2016-05-24T08:44:26.956Z,1009.33
2016-05-24T08:45:27.006Z,1009.33
2016-05-24T08:46:27.055Z,1009.31
2016-05-24T08:47:27.120Z,1009.27
2016-05-24T08:48:27.169Z,1009.28
2016-05-24T08:49:27.219Z,1009.27
2016-05-24T08:50:27.270Z,1009.26
2016-05-24T08:51:27.319Z,1009.25
2016-05-24T08:52:27.367Z,1009.3
2016-05-24T08:53:27.417Z,1009.29
2016-05-24T08:54:27.530Z,1009.24
2016-05-24T08:55:27.514Z,1009.24
2016-05-24T08:56:27.598Z,1009.27
2016-05-24T08:57:27.616Z,1009.23
2016-05-24T08:58:27.681Z,1009.25
2016-05-24T08:59:27.715Z,1009.23
2016-05-24T09:00:27.858Z,1009.22
2016-05-24T09:01:27.830Z,1009.24
2016-05-24T09:02:27.879Z,1009.17
2016-05-24T09:03:27.930Z,1009.19
2016-05-24T09:04:27.979Z,1009.19
2016-05-24T09:05:28.027Z,1009.14
2016-05-24T09:06:28.077Z,1009.17
2016-05-24T09:07:28.127Z,1009.14
2016-05-24T09:08:28.177Z,1009.16
2016-05-24T09:09:28.226Z,1009.17
2016-05-24T09:10:28.276Z,1009.19
2016-05-24T09:11:28.326Z,1009.19
2016-05-24T09:12:28.376Z,1009.16
2016-05-24T09:13:28.424Z,1009.18
2016-05-24T09:14:28.490Z,1009.21
2016-05-24T09:15:29.040Z,1009.18
2016-05-24T09:16:28.604Z,1009.21
2016-05-24T09:17:28.639Z,1009.23
2016-05-24T09:18:28.687Z,1009.19
2016-05-24T09:19:28.737Z,1009.21
2016-05-24T09:20:28.787Z,1009.2
2016-05-24T09:21:28.837Z,1009.16
2016-05-24T09:22:29.011Z,1009.12
2016-05-24T09:23:28.936Z,1009.11
2016-05-24T09:24:28.986Z,1009.14
2016-05-24T09:25:29.036Z,1009.13
2016-05-24T09:26:29.084Z,1009.12
2016-05-24T09:27:29.149Z,1009.17
2016-05-24T09:28:29.184Z,1009.13
2016-05-24T09:29:29.233Z,1009.22
2016-05-24T09:30:29.299Z,1009.22
2016-05-24T09:31:29.348Z,1009.24
2016-05-24T09:32:29.397Z,1009.27
2016-05-24T09:33:29.447Z,1009.28
2016-05-24T09:34:29.497Z,1009.26
2016-05-24T09:35:29.624Z,1009.33
2016-05-24T09:36:29.595Z,1009.33
2016-05-24T09:37:29.661Z,1009.34
2016-05-24T09:38:29.695Z,1009.36
2016-05-24T09:39:29.744Z,1009.35
2016-05-24T09:40:29.810Z,1009.31
2016-05-24T09:41:29.843Z,1009.37
2016-05-24T09:42:29.909Z,1009.35
2016-05-24T09:43:29.959Z,1009.37
2016-05-24T09:44:30.007Z,1009.38
2016-05-24T09:45:30.057Z,1009.39
2016-05-24T09:46:30.184Z,1009.39
2016-05-24T09:47:30.157Z,1009.38
2016-05-24T09:48:30.207Z,1009.39
2016-05-24T09:49:30.255Z,1009.44
2016-05-24T09:50:30.337Z,1009.36
2016-05-24T09:51:30.355Z,1009.35
2016-05-24T09:52:30.420Z,1009.34
2016-05-24T09:53:30.454Z,1009.35
2016-05-24T09:54:30.503Z,1009.38
2016-05-24T09:55:31.444Z,1009.36
2016-05-24T09:56:30.619Z,1009.36
2016-05-24T09:57:30.667Z,1009.33
2016-05-24T09:58:30.717Z,1009.39
2016-05-24T09:59:30.767Z,1009.35
2016-05-24T10:00:30.880Z,1009.36
2016-05-24T10:01:30.866Z,1009.39
2016-05-24T10:02:30.916Z,1009.42
2016-05-24T10:03:30.966Z,1009.35
2016-05-24T10:04:31.015Z,1009.39
2016-05-24T10:05:31.063Z,1009.35
2016-05-24T10:06:34.143Z,1009.33
2016-05-24T10:07:31.199Z,1009.36
2016-05-24T10:08:31.270Z,1009.34
2016-05-24T10:09:31.358Z,1009.35
2016-05-24T10:10:31.414Z,1009.34
2016-05-24T10:11:31.491Z,1009.38
2016-05-24T10:12:31.534Z,1009.41
2016-05-24T10:13:31.591Z,1009.42
2016-05-24T10:14:31.648Z,1009.38
2016-05-24T10:15:31.723Z,1009.37
2016-05-24T10:16:31.777Z,1009.38
2016-05-24T10:17:31.830Z,1009.4
2016-05-24T10:18:31.881Z,1009.42
2016-05-24T10:19:31.933Z,1009.4
2016-05-24T10:20:31.986Z,1009.38
2016-05-24T10:21:32.381Z,1009.37
2016-05-24T10:22:32.119Z,1009.37
2016-05-24T10:23:32.139Z,1009.36
2016-05-24T10:24:32.189Z,1009.34
2016-05-24T10:25:32.240Z,1009.34
2016-05-24T10:26:33.400Z,1009.3
2016-05-24T10:27:32.356Z,1009.34
2016-05-24T10:28:32.406Z,1009.33
2016-05-24T10:29:32.440Z,1009.31
2016-05-24T10:30:32.506Z,1009.34
2016-05-24T10:31:32.555Z,1009.34
2016-05-24T10:32:32.605Z,1009.34
2016-05-24T10:33:32.654Z,1009.36
2016-05-24T10:34:32.704Z,1009.3
2016-05-24T10:35:32.753Z,1009.34
2016-05-24T10:36:32.818Z,1009.32
2016-05-24T10:37:32.868Z,1009.34
2016-05-24T10:38:32.903Z,1009.35
2016-05-24T10:39:32.951Z,1009.34
2016-05-24T10:40:33.017Z,1009.42
2016-05-24T10:41:33.051Z,1009.41
2016-05-24T10:42:33.116Z,1009.38
2016-05-24T10:43:33.166Z,1009.4
2016-05-24T10:44:33.215Z,1009.37
2016-05-24T10:45:33.249Z,1009.33
2016-05-24T10:46:33.314Z,1009.36
2016-05-24T10:47:33.364Z,1009.34
2016-05-24T10:48:33.430Z,1009.42
2016-05-24T10:49:33.463Z,1009.4
2016-05-24T10:50:33.513Z,1009.38
2016-05-24T10:51:33.563Z,1009.36
2016-05-24T10:52:33.611Z,1009.36
2016-05-24T10:53:33.661Z,1009.38
2016-05-24T10:54:33.710Z,1009.36
2016-05-24T10:55:33.776Z,1009.3
2016-05-24T10:56:33.826Z,1009.27
2016-05-24T10:57:33.875Z,1009.28
2016-05-24T10:58:33.909Z,1009.28
2016-05-24T10:59:33.974Z,1009.28
2016-05-24T11:00:34.023Z,1009.3
2016-05-24T11:01:34.074Z,1009.29
2016-05-24T11:02:34.138Z,1009.3
2016-05-24T11:03:34.173Z,1009.27
2016-05-24T11:04:34.254Z,1009.24
2016-05-24T11:05:34.271Z,1009.26
2016-05-24T11:06:34.321Z,1009.21
2016-05-24T11:07:34.387Z,1009.22
2016-05-24T11:08:34.420Z,1009.22
2016-05-24T11:09:34.470Z,1009.2
2016-05-24T11:10:34.520Z,1009.19
2016-05-24T11:11:34.569Z,1009.24
2016-05-24T11:12:34.634Z,1009.22
2016-05-24T11:13:34.667Z,1009.19
2016-05-24T11:14:34.734Z,1009.23
2016-05-24T11:15:34.798Z,1009.21
2016-05-24T11:16:34.816Z,1009.19
2016-05-24T11:17:34.883Z,1009.24
2016-05-24T11:18:34.963Z,1009.24
2016-05-24T11:19:34.981Z,1009.24
2016-05-24T11:20:35.031Z,1009.23
2016-05-24T11:21:35.080Z,1009.25
2016-05-24T11:22:35.130Z,1009.26
2016-05-24T11:23:35.180Z,1009.34
2016-05-24T11:24:35.229Z,1009.27
2016-05-24T11:25:35.279Z,1009.26
2016-05-24T11:26:35.328Z,1009.28
2016-05-24T11:27:35.377Z,1009.26
2016-05-24T11:28:35.427Z,1009.24
2016-05-24T11:29:35.477Z,1009.18
2016-05-24T11:30:35.714Z,1009.19
2016-05-24T11:31:35.591Z,1009.19
2016-05-24T11:32:35.626Z,1009.19
2016-05-24T11:33:35.691Z,1009.17
2016-05-24T11:34:35.725Z,1009.16
2016-05-24T11:35:35.774Z,1009.11
2016-05-24T11:36:35.839Z,1009.14
2016-05-24T11:37:35.904Z,1009.13
2016-05-24T11:38:36.017Z,1009.07
2016-05-24T11:39:36.004Z,1009.12
2016-05-24T11:40:36.037Z,1009.08
2016-05-24T11:41:36.087Z,1009.03
2016-05-24T11:42:36.137Z,1009.04
2016-05-24T11:43:36.186Z,1009.08
2016-05-24T11:44:36.236Z,1009.11
2016-05-24T11:45:36.285Z,1009.03
2016-05-24T11:46:36.335Z,1009.07
2016-05-24T11:47:36.384Z,1009.05
2016-05-24T11:48:36.434Z,1009.06
2016-05-24T11:49:36.500Z,1009.08
2016-05-24T11:50:36.550Z,1009.13
2016-05-24T11:51:36.613Z,1009.1
2016-05-24T11:52:36.633Z,1009.13
2016-05-24T11:53:36.698Z,1009.06
2016-05-24T11:54:36.747Z,1009.11
2016-05-24T11:55:36.797Z,1009.15
2016-05-24T11:56:36.846Z,1009.16
2016-05-24T11:57:36.896Z,1009.18
2016-05-24T11:58:36.946Z,1009.18
2016-05-24T11:59:36.995Z,1009.19
2016-05-24T12:00:37.044Z,1009.16
2016-05-24T12:01:37.094Z,1009.15
2016-05-24T12:02:37.190Z,1009.22
2016-05-24T12:03:37.193Z,1009.2
2016-05-24T12:04:37.243Z,1009.16
2016-05-24T12:05:37.293Z,1009.15
2016-05-24T12:06:37.357Z,1009.11
2016-05-24T12:07:37.407Z,1009.12
2016-05-24T12:08:37.457Z,1009.07